Impacts METAR Board
IDs:

KLGA - New York/La Guardia, NY, US

Updated at: 0600 UTC 24 Jan 2019
Potential Impact None Slight Moderate High
Time 23/18Z 23/19Z 23/20Z 23/21Z 23/22Z 23/23Z 24/00Z 24/01Z 24/02Z 24/03Z 24/04Z 24/05Z 24/06Z
Temp39 41 43 42 42 44 42 43 43 45 45 46 48
Dewpt18 21 23 26 31 35 35 36 37 39 41 42 43
Altim30.23 30.19 30.15 30.13 30.09 30.06 30.05 30.02 29.98 29.98 29.95 29.93 29.90
VIS10 10 10 10 10 10 10 10 10 10 10 10 9
CIG36 36 95 50 47 55 100 100 55 60 65 50 28
CoverOVCOVCBKNBKNBKNOVCBKNBKNBKNBKNOVCOVCOVC
FltCatVFRVFRVFRVFRVFRVFRVFRVFRVFRVFRVFRVFRMVFR
WX-------------------------RA
WDir200220210170180170170180180180160160170
WSpd8 9 9 8 6 6 6 5 4 5 7 5 6
WGst-- -- -- -- -- -- -- -- -- -- -- -- --
Raw hourly METARs
KLGA 231751Z 20008KT 10SM OVC036 04/M08 A3023 RMK AO2 RAB21E30 SLP236 P0000 60000 T00391078 10039 20000 58033
KLGA 231851Z 22009KT 10SM OVC036 05/M06 A3019 RMK AO2 SLP221 T00501061
KLGA 231951Z 21009KT 10SM SCT038 BKN095 BKN250 06/M05 A3015 RMK AO2 SLP209 T00611050
KLGA 232051Z 17008KT 10SM BKN050 BKN095 BKN250 06/M03 A3013 RMK AO2 SLP202 T00561033 56034
KLGA 232151Z 18006KT 10SM BKN047 BKN090 BKN250 06/M01 A3009 RMK AO2 SLP190 T00561006
KLGA 232251Z 17006KT 10SM SCT045 OVC055 07/02 A3006 RMK AO2 SLP179 T00670017
KLGA 232351Z 17006KT 10SM FEW045 SCT055 BKN100 BKN250 06/02 A3005 RMK AO2 SLP174 T00560017 10067 20039 56028
KLGA 240051Z 18005KT 10SM FEW050 BKN100 BKN250 06/02 A3002 RMK AO2 SLP165 T00610022
KLGA 240151Z 18004KT 10SM BKN055 BKN110 BKN250 06/03 A2998 RMK AO2 PRESFR SLP153 T00610028
KLGA 240251Z 18005KT 10SM BKN060 BKN075 BKN100 BKN170 BKN250 07/04 A2998 RMK AO2 SLP150 T00720039 56024
KLGA 240351Z 16007KT 10SM FEW036 OVC065 07/05 A2995 RMK AO2 SLP142 T00720050
KLGA 240451Z 16005KT 10SM FEW026 OVC050 08/06 A2993 RMK AO2 SLP134 T00780056 400831011
KLGA 240551Z 17006KT 9SM -RA BKN028 OVC050 09/06 A2990 RMK AO2 RAB42 SLP124 P0000 60000 T00890061 10089 20056 58026



Page loaded:  06:59 UTC  |   10:59 PM Pacific  |   11:59 PM Mountain  |   12:59 AM Central  |   01:59 AM Eastern

 

ADVISORIES

FORECASTS

FORECASTS

OBSERVATIONS

USER TOOLS

ABOUT US